Time;durP1;ratioP1;P1;durP2;ratioP2;P2;SDS_P1;SDS_P2;PMS_P1;PMS_P2;Temp;Humidity;BMP_temperature;BMP_pressure;BME280_temperature;BME280_humidity;BME280_pressure;Samples;Min_cycle;Max_cycle;Signal;HPM_P1;HPM_P2
2022/10/03 00:01:08;;;;;;;5.25;0.95;;;;;;;;;;5045624;28;20036;-84
2022/10/03 00:03:53;;;;;;;12.05;1.70;;;;;;;;;;5047688;28;20044;-84
2022/10/03 00:06:21;;;;;;;8.32;1.08;;;;;;;;;;5046345;28;20037;-84
2022/10/03 00:09:17;;;;;;;11.75;1.33;;;;;;;;;;5029538;28;20037;-84
2022/10/03 00:11:58;;;;;;;7.82;1.42;;;;;;;;;;5046867;28;20044;-84
2022/10/03 00:14:51;;;;;;;11.88;1.63;;;;;;;;;;5045816;28;20037;-84
2022/10/03 00:17:49;;;;;;;8.02;1.50;;;;;;;;;;5044079;28;20616;-84
2022/10/03 00:20:45;;;;;;;9.95;1.58;;;;;;;;;;5031908;28;20044;-84
2022/10/03 00:23:34;;;;;;;7.07;1.45;;;;;;;;;;5046886;28;20144;-84
2022/10/03 00:26:26;;;;;;;4.68;0.82;;;;;;;;;;5045765;28;20049;-84
2022/10/03 00:29:18;;;;;;;7.22;1.17;;;;;;;;;;5045497;28;20049;-84
2022/10/03 00:31:48;;;;;;;15.68;1.30;;;;;;;;;;5025400;28;20045;-83
2022/10/03 00:34:21;;;;;;;10.48;1.88;;;;;;;;;;5045118;28;20456;-84
2022/10/03 00:37:16;;;;;;;12.85;1.40;;;;;;;;;;5045893;28;20477;-84
2022/10/03 00:40:05;;;;;;;7.78;1.50;;;;;;;;;;5045979;28;20036;-84
2022/10/03 00:43:00;;;;;;;8.23;1.85;;;;;;;;;;5029759;28;20047;-84
2022/10/03 00:46:03;;;;;;;5.80;1.30;;;;;;;;;;5024458;28;20047;-84
2022/10/03 00:48:46;;;;;;;9.97;1.13;;;;;;;;;;4963874;28;20054;-84
2022/10/03 00:51:22;;;;;;;8.48;1.35;;;;;;;;;;4965256;28;20188;-84
2022/10/03 00:54:23;;;;;;;12.13;1.48;;;;;;;;;;4964279;28;20133;-84
2022/10/03 00:57:52;;;;;;;9.60;1.20;;;;;;;;;;4962406;28;20042;-84
2022/10/03 01:00:23;;;;;;;8.50;1.58;;;;;;;;;;4966370;28;20053;-84
2022/10/03 01:03:21;;;;;;;12.40;1.60;;;;;;;;;;4951574;28;20058;-84
2022/10/03 01:06:27;;;;;;;12.48;1.60;;;;;;;;;;4965308;28;20082;-84
2022/10/03 01:09:55;;;;;;;8.00;1.45;;;;;;;;;;4965328;28;20066;-84
2022/10/03 01:12:48;;;;;;;10.57;1.50;;;;;;;;;;4962787;28;20051;-84
2022/10/03 01:15:41;;;;;;;5.15;1.40;;;;;;;;;;4962631;28;20051;-84
2022/10/03 01:18:39;;;;;;;10.60;1.70;;;;;;;;;;4964094;28;20667;-84
2022/10/03 01:21:30;;;;;;;5.75;1.02;;;;;;;;;;4964458;28;20514;-84
2022/10/03 01:27:31;;;;;;;12.43;1.27;;;;;;;;;;5044966;28;20078;-84
2022/10/03 01:30:22;;;;;;;7.32;1.70;;;;;;;;;;5039771;28;20041;-84
2022/10/03 01:32:58;;;;;;;10.73;1.38;;;;;;;;;;5040988;28;20044;-84
2022/10/03 01:35:35;;;;;;;12.10;1.40;;;;;;;;;;5042398;28;20048;-84
2022/10/03 01:38:26;;;;;;;5.90;1.13;;;;;;;;;;5045341;28;20041;-84
2022/10/03 01:41:10;;;;;;;9.30;1.48;;;;;;;;;;5045138;28;20112;-84
2022/10/03 01:43:46;;;;;;;5.85;1.30;;;;;;;;;;5026827;28;20069;-84
2022/10/03 01:46:27;;;;;;;8.75;1.80;;;;;;;;;;5026482;28;20040;-84
2022/10/03 01:49:20;;;;;;;8.40;1.20;;;;;;;;;;5046990;28;20037;-84
2022/10/03 01:52:27;;;;;;;12.35;2.20;;;;;;;;;;5041245;28;20110;-84
2022/10/03 01:55:02;;;;;;;8.30;1.10;;;;;;;;;;4964419;28;20047;-85
2022/10/03 01:57:35;;;;;;;9.88;1.65;;;;;;;;;;4963966;28;20059;-84
2022/10/03 02:00:16;;;;;;;6.05;1.15;;;;;;;;;;4963860;28;20127;-84
2022/10/03 02:03:19;;;;;;;8.68;1.20;;;;;;;;;;4962056;28;20050;-84
2022/10/03 02:06:05;;;;;;;9.20;1.35;;;;;;;;;;4966064;28;20046;-84
2022/10/03 02:08:40;;;;;;;6.93;1.38;;;;;;;;;;4963320;28;20051;-84
2022/10/03 02:11:28;;;;;;;6.32;1.17;;;;;;;;;;4964631;28;20074;-84
2022/10/03 02:14:34;;;;;;;19.75;1.70;;;;;;;;;;4964393;28;20528;-84
2022/10/03 02:17:44;;;;;;;11.35;1.08;;;;;;;;;;4963905;28;20045;-84
2022/10/03 02:20:52;;;;;;;5.28;1.05;;;;;;;;;;4964384;28;20110;-84
2022/10/03 02:23:31;;;;;;;7.13;1.40;;;;;;;;;;4946958;28;20038;-84
2022/10/03 02:26:43;;;;;;;10.90;1.58;;;;;;;;;;4965397;28;20077;-84
2022/10/03 02:29:50;;;;;;;9.20;1.10;;;;;;;;;;4963210;28;20047;-84
2022/10/03 02:32:31;;;;;;;8.52;1.40;;;;;;;;;;5032438;28;20048;-84
2022/10/03 02:36:17;;;;;;;5.03;1.30;;;;;;;;;;5034700;28;20072;-84
2022/10/03 02:39:52;;;;;;;10.70;1.48;;;;;;;;;;4961106;28;20047;-84
2022/10/03 02:42:44;;;;;;;11.13;1.08;;;;;;;;;;4960255;28;20056;-84
2022/10/03 02:45:24;;;;;;;7.57;1.50;;;;;;;;;;4961799;28;20609;-84
2022/10/03 02:48:51;;;;;;;4.47;0.95;;;;;;;;;;4946406;28;20051;-84
2022/10/03 02:51:48;;;;;;;14.00;1.75;;;;;;;;;;4961221;28;20057;-84
2022/10/03 02:54:48;;;;;;;5.82;1.20;;;;;;;;;;4958478;28;20256;-84
2022/10/03 02:58:01;;;;;;;10.05;1.40;;;;;;;;;;4930323;28;21129;-84
2022/10/03 03:00:57;;;;;;;8.07;1.25;;;;;;;;;;4927054;28;20142;-84
2022/10/03 03:03:40;;;;;;;6.90;0.93;;;;;;;;;;4939391;28;20167;-84
2022/10/03 03:06:31;;;;;;;6.30;1.15;;;;;;;;;;4941998;28;20071;-84
2022/10/03 03:09:22;;;;;;;6.65;0.90;;;;;;;;;;4940670;29;20075;-84
2022/10/03 03:11:58;;;;;;;6.78;1.48;;;;;;;;;;4941100;28;20640;-84
2022/10/03 03:14:46;;;;;;;4.13;1.00;;;;;;;;;;4942440;28;20051;-84
2022/10/03 03:17:29;;;;;;;6.50;0.95;;;;;;;;;;5022604;28;20137;-84
2022/10/03 03:20:21;;;;;;;7.05;1.15;;;;;;;;;;5024673;28;20244;-84
2022/10/03 03:23:09;;;;;;;5.35;0.98;;;;;;;;;;5023691;28;20460;-84
2022/10/03 03:26:03;;;;;;;9.02;1.20;;;;;;;;;;5041971;28;20049;-83
2022/10/03 03:29:00;;;;;;;9.45;1.17;;;;;;;;;;5047351;28;20044;-84
2022/10/03 03:32:12;;;;;;;7.07;0.82;;;;;;;;;;5048564;28;20033;-84
2022/10/03 03:35:23;;;;;;;8.50;1.40;;;;;;;;;;5045856;28;20160;-84
2022/10/03 03:38:13;;;;;;;10.93;1.27;;;;;;;;;;5046973;28;20107;-84
2022/10/03 03:41:01;;;;;;;9.63;1.45;;;;;;;;;;5030927;28;20440;-84
2022/10/03 03:43:49;;;;;;;13.70;1.35;;;;;;;;;;5015393;28;20044;-84
2022/10/03 03:46:44;;;;;;;7.50;1.17;;;;;;;;;;5048095;28;20063;-84
2022/10/03 03:49:52;;;;;;;14.70;1.58;;;;;;;;;;5047100;28;20033;-84
2022/10/03 03:52:40;;;;;;;7.18;1.20;;;;;;;;;;5046481;28;20128;-84
2022/10/03 03:55:23;;;;;;;8.80;0.95;;;;;;;;;;5048134;28;20060;-84
2022/10/03 03:58:44;;;;;;;6.53;2.00;;;;;;;;;;5027972;28;20370;-84
2022/10/03 04:01:30;;;;;;;7.43;1.45;;;;;;;;;;4987331;28;20452;-84
2022/10/03 04:04:09;;;;;;;7.65;1.13;;;;;;;;;;4970572;28;20072;-84
2022/10/03 04:07:21;;;;;;;9.00;1.23;;;;;;;;;;4987494;28;20054;-84
2022/10/03 04:10:43;;;;;;;4.05;1.05;;;;;;;;;;4969476;28;20098;-84
2022/10/03 04:13:21;;;;;;;6.53;1.10;;;;;;;;;;4886421;29;20053;-84
2022/10/03 04:20:01;;;;;;;5.22;1.10;;;;;;;;;;4886151;29;20097;-83
2022/10/03 04:22:59;;;;;;;10.35;1.58;;;;;;;;;;4884476;29;20057;-84
2022/10/03 04:25:59;;;;;;;5.85;1.73;;;;;;;;;;4913627;28;20055;-84
2022/10/03 04:28:40;;;;;;;8.73;2.47;;;;;;;;;;4940097;29;20156;-84
2022/10/03 04:31:30;;;;;;;5.07;1.10;;;;;;;;;;4943524;28;20039;-84
2022/10/03 04:34:36;;;;;;;7.47;1.30;;;;;;;;;;4939047;28;20059;-84
2022/10/03 04:37:27;;;;;;;5.47;1.33;;;;;;;;;;4889710;29;20216;-84
2022/10/03 04:40:07;;;;;;;7.20;1.15;;;;;;;;;;4890525;29;20052;-83
2022/10/03 04:42:58;;;;;;;7.15;1.40;;;;;;;;;;4889549;29;20131;-84
2022/10/03 04:45:52;;;;;;;7.93;1.10;;;;;;;;;;4889792;29;20075;-84
2022/10/03 04:48:39;;;;;;;5.20;1.58;;;;;;;;;;4965402;28;20100;-84
2022/10/03 04:51:26;;;;;;;8.63;1.50;;;;;;;;;;4963490;28;20043;-84
2022/10/03 04:54:39;;;;;;;12.27;1.88;;;;;;;;;;4962133;28;20121;-84
2022/10/03 04:57:35;;;;;;;4.28;1.35;;;;;;;;;;4951587;28;20035;-84
2022/10/03 05:00:32;;;;;;;7.95;1.58;;;;;;;;;;4960659;28;20475;-84
2022/10/03 05:03:25;;;;;;;4.90;1.88;;;;;;;;;;4964752;28;20568;-84
2022/10/03 05:05:58;;;;;;;8.57;1.60;;;;;;;;;;4949874;28;20066;-84
2022/10/03 05:08:49;;;;;;;9.80;2.25;;;;;;;;;;4962339;28;20050;-84
2022/10/03 05:11:55;;;;;;;9.27;1.70;;;;;;;;;;4963003;28;20158;-84
2022/10/03 05:15:06;;;;;;;9.20;1.75;;;;;;;;;;5044078;28;20741;-84
2022/10/03 05:17:45;;;;;;;8.40;2.15;;;;;;;;;;5046486;28;21021;-83
2022/10/03 05:20:33;;;;;;;8.20;1.95;;;;;;;;;;5045566;28;20511;-84
2022/10/03 05:23:40;;;;;;;5.10;1.88;;;;;;;;;;5048048;28;20396;-84
2022/10/03 05:26:39;;;;;;;6.47;1.75;;;;;;;;;;5035428;28;20045;-85
2022/10/03 05:29:26;;;;;;;7.50;1.38;;;;;;;;;;5046637;28;20083;-83
2022/10/03 05:32:26;;;;;;;6.70;1.58;;;;;;;;;;5044408;28;20056;-84
2022/10/03 05:35:29;;;;;;;10.30;1.67;;;;;;;;;;5047582;28;20993;-83
2022/10/03 05:38:09;;;;;;;8.93;1.27;;;;;;;;;;5046012;28;20121;-84
2022/10/03 05:40:42;;;;;;;8.55;1.35;;;;;;;;;;5028840;28;20514;-84
2022/10/03 05:43:57;;;;;;;8.82;1.50;;;;;;;;;;5007469;28;20053;-84
2022/10/03 05:46:37;;;;;;;16.08;1.95;;;;;;;;;;5041425;28;20036;-84
2022/10/03 05:49:24;;;;;;;11.85;1.52;;;;;;;;;;5046517;28;20037;-83
2022/10/03 05:52:22;;;;;;;10.48;1.27;;;;;;;;;;5025763;28;20045;-84
2022/10/03 05:55:15;;;;;;;10.80;1.63;;;;;;;;;;5043606;28;20098;-84
2022/10/03 05:58:37;;;;;;;7.25;1.42;;;;;;;;;;5027566;28;20488;-84
2022/10/03 06:01:21;;;;;;;7.65;1.15;;;;;;;;;;5046692;28;20033;-84
2022/10/03 06:03:59;;;;;;;17.13;2.03;;;;;;;;;;5029085;28;20099;-84
2022/10/03 06:07:21;;;;;;;14.68;1.63;;;;;;;;;;5026249;28;20492;-84
2022/10/03 06:10:17;;;;;;;9.57;1.75;;;;;;;;;;5043747;28;20069;-84
2022/10/03 06:13:54;;;;;;;6.40;1.33;;;;;;;;;;5043109;28;20183;-84
2022/10/03 06:16:50;;;;;;;9.23;1.88;;;;;;;;;;5023275;28;20033;-84
2022/10/03 06:19:30;;;;;;;10.60;2.50;;;;;;;;;;5044173;28;20485;-83
2022/10/03 06:22:21;;;;;;;10.65;1.48;;;;;;;;;;5026517;28;20076;-84
2022/10/03 06:25:46;;;;;;;13.15;1.73;;;;;;;;;;5045789;28;20030;-84
2022/10/03 06:28:39;;;;;;;16.20;1.77;;;;;;;;;;5026966;28;20517;-83
2022/10/03 06:31:40;;;;;;;15.13;2.35;;;;;;;;;;5045836;28;20485;-84
2022/10/03 06:34:33;;;;;;;16.90;2.35;;;;;;;;;;5047783;28;20124;-84
2022/10/03 06:37:29;;;;;;;17.63;1.98;;;;;;;;;;5050585;28;20047;-84
2022/10/03 06:40:24;;;;;;;14.48;2.20;;;;;;;;;;5051833;28;20036;-83
2022/10/03 06:42:57;;;;;;;15.23;1.80;;;;;;;;;;5030117;28;20049;-82
2022/10/03 06:45:37;;;;;;;10.13;2.28;;;;;;;;;;5050023;28;21476;-82
2022/10/03 06:48:46;;;;;;;11.43;1.90;;;;;;;;;;5048969;28;20044;-82
2022/10/03 06:52:10;;;;;;;13.40;1.90;;;;;;;;;;5048705;28;20033;-83
2022/10/03 06:54:56;;;;;;;19.60;2.10;;;;;;;;;;5033209;28;20064;-82
2022/10/03 06:58:07;;;;;;;15.35;1.58;;;;;;;;;;5033631;28;20098;-82
2022/10/03 07:07:52;;;;;;;;;;;;;;;;;;5048753;28;20112;-83
2022/10/03 07:10:34;;;;;;;11.98;1.75;;;;;;;;;;5048750;28;19925;-83
2022/10/03 07:13:10;;;;;;;11.90;2.35;;;;;;;;;;5048131;28;20044;-83
2022/10/03 07:15:48;;;;;;;15.93;2.17;;;;;;;;;;5024316;28;20484;-83
2022/10/03 07:18:55;;;;;;;18.27;2.10;;;;;;;;;;5027983;28;20156;-82
2022/10/03 07:21:35;;;;;;;13.40;1.90;;;;;;;;;;5048606;28;20040;-83
2022/10/03 07:24:28;;;;;;;11.50;2.40;;;;;;;;;;5027446;28;20118;-83
2022/10/03 07:27:15;;;;;;;14.32;2.78;;;;;;;;;;5030725;28;20471;-83
2022/10/03 07:30:10;;;;;;;12.73;1.80;;;;;;;;;;5046069;28;20079;-82
2022/10/03 07:33:20;;;;;;;17.50;2.15;;;;;;;;;;5043657;28;20138;-81
2022/10/03 07:39:45;;;;;;;15.30;2.55;;;;;;;;;;5047531;28;20044;-81
2022/10/03 07:42:20;;;;;;;9.43;1.60;;;;;;;;;;5046903;28;20033;-82
2022/10/03 07:45:05;;;;;;;19.30;2.10;;;;;;;;;;5048182;28;20037;-83
2022/10/03 07:47:43;;;;;;;12.13;1.80;;;;;;;;;;5014896;28;20098;-83
2022/10/03 07:51:17;;;;;;;15.55;2.33;;;;;;;;;;5050366;28;20745;-83
2022/10/03 07:53:46;;;;;;;12.80;2.15;;;;;;;;;;4987531;28;20062;-83
2022/10/03 07:56:43;;;;;;;15.82;1.70;;;;;;;;;;4957439;28;20066;-83
2022/10/03 07:59:53;;;;;;;20.00;2.58;;;;;;;;;;4973975;28;20145;-83
2022/10/03 08:02:31;;;;;;;10.05;1.80;;;;;;;;;;4919508;29;20047;-83
2022/10/03 08:06:09;;;;;;;18.58;2.05;;;;;;;;;;4909593;29;20179;-83
2022/10/03 08:08:56;;;;;;;18.27;2.22;;;;;;;;;;4901876;29;20040;-81
2022/10/03 08:12:07;;;;;;;19.98;2.13;;;;;;;;;;4919008;29;20051;-81
2022/10/03 08:14:57;;;;;;;14.05;1.90;;;;;;;;;;4920624;29;20055;-82
2022/10/03 08:17:46;;;;;;;15.65;2.85;;;;;;;;;;4913888;29;20428;-85
2022/10/03 08:20:32;;;;;;;29.77;14.38;;;;;;;;;;4916712;29;20044;-87
2022/10/03 08:23:41;;;;;;;36.95;20.45;;;;;;;;;;4921438;29;20111;-86
2022/10/03 08:26:19;;;;;;;20.52;8.32;;;;;;;;;;4919368;29;20047;-86
2022/10/03 08:29:13;;;;;;;41.20;20.58;;;;;;;;;;4915511;29;20044;-86
2022/10/03 08:32:00;;;;;;;29.75;15.20;;;;;;;;;;4964192;28;20415;-86
2022/10/03 08:35:04;;;;;;;94.70;54.92;;;;;;;;;;4965686;28;20467;-86
2022/10/03 08:38:15;;;;;;;128.10;77.28;;;;;;;;;;5048141;28;20124;-86
2022/10/03 08:41:15;;;;;;;27.25;12.95;;;;;;;;;;5033555;28;20064;-86
2022/10/03 08:44:14;;;;;;;38.15;15.57;;;;;;;;;;5042107;28;20041;-86
2022/10/03 08:46:54;;;;;;;73.38;26.25;;;;;;;;;;5027078;28;20551;-85
2022/10/03 08:50:12;;;;;;;32.00;10.88;;;;;;;;;;5045539;28;20044;-86
2022/10/03 08:53:46;;;;;;;16.35;3.97;;;;;;;;;;5043502;28;20033;-85
2022/10/03 08:57:09;;;;;;;17.70;3.03;;;;;;;;;;5048193;28;20124;-86
2022/10/03 09:00:00;;;;;;;17.65;3.35;;;;;;;;;;5031531;28;20449;-84
2022/10/03 09:03:08;;;;;;;7.88;1.80;;;;;;;;;;5028669;28;20037;-85
2022/10/03 09:06:10;;;;;;;7.10;1.80;;;;;;;;;;4965551;28;20102;-85
2022/10/03 09:08:56;;;;;;;8.15;1.17;;;;;;;;;;4965615;28;20407;-85
2022/10/03 09:11:36;;;;;;;12.40;1.52;;;;;;;;;;4969657;28;20039;-85
2022/10/03 09:14:18;;;;;;;11.80;2.42;;;;;;;;;;4969911;28;20560;-85
2022/10/03 09:17:23;;;;;;;11.65;1.83;;;;;;;;;;4970191;28;20637;-85
2022/10/03 09:19:57;;;;;;;10.32;1.52;;;;;;;;;;4969817;28;20070;-85
2022/10/03 09:22:44;;;;;;;10.18;2.05;;;;;;;;;;4969163;28;20058;-85
2022/10/03 09:25:18;;;;;;;12.73;2.05;;;;;;;;;;4968823;28;20520;-85
2022/10/03 09:28:29;;;;;;;15.63;2.58;;;;;;;;;;4964991;28;20050;-84
2022/10/03 09:31:08;;;;;;;10.43;1.50;;;;;;;;;;4964970;28;20042;-85
2022/10/03 09:34:12;;;;;;;12.23;1.67;;;;;;;;;;4965906;28;20094;-84
2022/10/03 09:36:59;;;;;;;12.85;1.35;;;;;;;;;;4942209;28;20507;-84
2022/10/03 09:39:39;;;;;;;10.57;1.60;;;;;;;;;;4946131;28;20038;-84
2022/10/03 09:42:30;;;;;;;13.60;1.50;;;;;;;;;;4997455;28;20420;-85
2022/10/03 09:45:25;;;;;;;8.32;1.42;;;;;;;;;;5043570;28;20040;-85
2022/10/03 09:48:41;;;;;;;10.32;1.30;;;;;;;;;;5010256;28;20385;-84
2022/10/03 09:51:50;;;;;;;8.77;1.45;;;;;;;;;;5025250;28;20120;-85
2022/10/03 09:55:01;;;;;;;10.77;1.50;;;;;;;;;;4946517;29;20054;-85
2022/10/03 09:57:32;;;;;;;8.48;1.30;;;;;;;;;;4942880;28;20504;-86
2022/10/03 10:00:15;;;;;;;10.95;1.48;;;;;;;;;;4948221;28;20147;-85
2022/10/03 10:03:10;;;;;;;13.07;1.98;;;;;;;;;;4947279;28;20043;-83
2022/10/03 10:06:10;;;;;;;11.63;2.05;;;;;;;;;;4945723;28;20055;-85
2022/10/03 10:09:01;;;;;;;11.98;1.98;;;;;;;;;;4949624;28;20585;-85
2022/10/03 10:12:00;;;;;;;14.43;1.63;;;;;;;;;;4941607;29;20512;-85
2022/10/03 10:14:42;;;;;;;14.88;1.65;;;;;;;;;;4946815;28;20071;-86
2022/10/03 10:17:45;;;;;;;12.63;2.03;;;;;;;;;;4945972;28;20050;-86
2022/10/03 10:20:38;;;;;;;10.60;1.77;;;;;;;;;;4948841;28;20047;-85
2022/10/03 10:23:26;;;;;;;9.07;1.60;;;;;;;;;;4952077;29;20047;-85
2022/10/03 10:26:24;;;;;;;14.13;2.50;;;;;;;;;;4923100;28;20141;-84
2022/10/03 10:29:35;;;;;;;8.85;1.73;;;;;;;;;;4947204;28;20071;-85
2022/10/03 10:32:22;;;;;;;13.35;1.55;;;;;;;;;;5028919;28;20045;-85
2022/10/03 10:35:37;;;;;;;6.18;1.45;;;;;;;;;;5044606;28;20051;-84
2022/10/03 10:38:17;;;;;;;14.05;2.03;;;;;;;;;;5026131;28;20041;-84
2022/10/03 10:41:11;;;;;;;9.63;1.58;;;;;;;;;;5049035;28;20041;-84
2022/10/03 10:43:39;;;;;;;10.20;1.17;;;;;;;;;;5019681;28;20092;-85
2022/10/03 10:46:30;;;;;;;7.75;1.33;;;;;;;;;;5024858;28;20044;-84
2022/10/03 10:49:45;;;;;;;7.10;1.38;;;;;;;;;;5030331;28;20040;-85
2022/10/03 10:52:42;;;;;;;10.30;2.28;;;;;;;;;;5028481;28;20118;-85
2022/10/03 10:55:52;;;;;;;10.02;1.27;;;;;;;;;;5043698;28;20044;-83
2022/10/03 10:59:04;;;;;;;7.88;1.02;;;;;;;;;;5029053;28;20485;-85
2022/10/03 11:02:21;;;;;;;10.60;1.80;;;;;;;;;;5028793;28;20515;-86
2022/10/03 11:05:14;;;;;;;11.18;1.17;;;;;;;;;;5044806;28;20072;-85
2022/10/03 11:08:16;;;;;;;9.40;1.67;;;;;;;;;;5046118;28;20045;-84
2022/10/03 11:10:56;;;;;;;8.13;1.25;;;;;;;;;;5048868;28;20401;-84
2022/10/03 11:13:39;;;;;;;10.00;1.52;;;;;;;;;;5043961;28;20498;-85
2022/10/03 11:16:38;;;;;;;8.60;1.45;;;;;;;;;;5028943;28;20040;-86
2022/10/03 11:19:49;;;;;;;6.10;1.52;;;;;;;;;;5044382;28;20055;-85
2022/10/03 11:23:02;;;;;;;8.43;1.15;;;;;;;;;;5025515;28;20037;-85
2022/10/03 11:26:13;;;;;;;6.47;1.10;;;;;;;;;;4943134;28;20047;-85
2022/10/03 11:29:17;;;;;;;9.57;1.38;;;;;;;;;;4946213;29;20157;-85
2022/10/03 11:32:18;;;;;;;9.20;1.50;;;;;;;;;;4933210;29;20710;-84
2022/10/03 11:34:57;;;;;;;5.40;1.23;;;;;;;;;;4944785;28;20055;-84
2022/10/03 11:37:31;;;;;;;6.35;1.60;;;;;;;;;;4930858;29;20053;-85
2022/10/03 11:40:18;;;;;;;8.52;1.40;;;;;;;;;;4945717;28;20047;-84
2022/10/03 11:43:10;;;;;;;8.50;1.23;;;;;;;;;;4942531;28;20051;-85
2022/10/03 11:46:25;;;;;;;9.00;1.90;;;;;;;;;;4934399;29;20135;-84
2022/10/03 11:49:16;;;;;;;6.80;1.33;;;;;;;;;;4947351;28;20177;-85
2022/10/03 11:52:05;;;;;;;8.63;1.08;;;;;;;;;;4944667;28;20074;-85
2022/10/03 11:54:39;;;;;;;10.10;1.50;;;;;;;;;;4913446;28;20059;-85
2022/10/03 11:57:13;;;;;;;8.43;1.05;;;;;;;;;;4943414;28;20075;-83
2022/10/03 11:59:54;;;;;;;6.35;1.45;;;;;;;;;;4946060;28;20039;-85
2022/10/03 12:02:45;;;;;;;3.92;1.00;;;;;;;;;;5027598;28;20041;-84
2022/10/03 12:05:45;;;;;;;8.15;1.55;;;;;;;;;;5011006;28;20082;-84
2022/10/03 12:11:12;;;;;;;11.23;1.50;;;;;;;;;;5045387;28;20036;-84
2022/10/03 12:13:56;;;;;;;7.95;1.67;;;;;;;;;;5029852;28;20533;-84
2022/10/03 12:16:30;;;;;;;7.15;1.52;;;;;;;;;;5011383;28;20044;-84
2022/10/03 12:19:11;;;;;;;6.63;1.15;;;;;;;;;;5023588;28;20401;-85
2022/10/03 12:21:59;;;;;;;9.57;1.50;;;;;;;;;;5049015;28;20044;-85
2022/10/03 12:25:00;;;;;;;6.78;1.48;;;;;;;;;;5027917;28;20045;-83
2022/10/03 12:27:41;;;;;;;10.73;1.50;;;;;;;;;;5027560;28;20037;-83
2022/10/03 12:30:16;;;;;;;9.10;1.40;;;;;;;;;;5026357;28;20048;-83
2022/10/03 12:32:50;;;;;;;8.43;1.27;;;;;;;;;;5046301;28;20048;-83
2022/10/03 12:35:39;;;;;;;6.10;1.35;;;;;;;;;;5048004;28;20132;-83
2022/10/03 12:38:24;;;;;;;6.78;1.38;;;;;;;;;;5014390;28;20041;-83
2022/10/03 12:41:30;;;;;;;6.05;1.67;;;;;;;;;;5012275;28;20103;-82
2022/10/03 12:45:09;;;;;;;8.60;1.60;;;;;;;;;;5045216;28;20029;-81
2022/10/03 12:48:12;;;;;;;9.45;1.88;;;;;;;;;;5035492;28;20115;-82
2022/10/03 12:50:53;;;;;;;8.38;1.50;;;;;;;;;;5043479;28;20040;-82
2022/10/03 12:53:48;;;;;;;6.93;1.52;;;;;;;;;;5045732;28;20033;-82
2022/10/03 12:56:24;;;;;;;6.35;1.65;;;;;;;;;;4964691;28;20065;-82
2022/10/03 12:59:10;;;;;;;6.88;1.40;;;;;;;;;;4965948;28;20046;-82
2022/10/03 13:02:02;;;;;;;11.07;1.38;;;;;;;;;;4966918;28;20047;-82
2022/10/03 13:05:06;;;;;;;8.65;1.50;;;;;;;;;;4951043;28;20835;-82
2022/10/03 13:07:51;;;;;;;5.50;1.15;;;;;;;;;;4965901;28;20054;-82
2022/10/03 13:10:40;;;;;;;9.68;1.98;;;;;;;;;;4965123;28;20047;-82
2022/10/03 13:13:26;;;;;;;7.95;1.38;;;;;;;;;;4965581;28;20056;-82
2022/10/03 13:16:23;;;;;;;13.05;1.70;;;;;;;;;;4930948;28;20597;-82
2022/10/03 13:19:16;;;;;;;8.13;1.38;;;;;;;;;;4965159;28;20070;-82
2022/10/03 13:22:17;;;;;;;11.38;1.70;;;;;;;;;;4955320;28;20134;-83
2022/10/03 13:24:59;;;;;;;6.70;1.40;;;;;;;;;;4948093;28;20078;-83
2022/10/03 13:27:36;;;;;;;6.18;1.75;;;;;;;;;;4964648;28;20054;-83
2022/10/03 13:30:52;;;;;;;10.63;1.95;;;;;;;;;;4961957;28;20056;-83
2022/10/03 13:33:32;;;;;;;8.30;1.40;;;;;;;;;;5002087;28;20060;-84
2022/10/03 13:36:13;;;;;;;9.50;1.55;;;;;;;;;;5014927;28;20117;-83
2022/10/03 13:38:57;;;;;;;4.78;1.45;;;;;;;;;;5039961;28;20037;-83
2022/10/03 13:41:40;;;;;;;12.93;2.00;;;;;;;;;;5025090;28;20055;-84
2022/10/03 13:44:49;;;;;;;9.40;1.55;;;;;;;;;;5043687;28;20045;-84
2022/10/03 13:47:34;;;;;;;8.23;1.70;;;;;;;;;;5025168;28;20049;-84
2022/10/03 13:50:12;;;;;;;7.93;1.48;;;;;;;;;;5022799;28;20104;-84
2022/10/03 13:53:14;;;;;;;11.88;1.77;;;;;;;;;;5046051;28;20041;-84
2022/10/03 13:56:00;;;;;;;10.82;1.77;;;;;;;;;;5041146;28;20124;-83
2022/10/03 13:58:40;;;;;;;14.73;1.80;;;;;;;;;;5047219;28;20098;-83
2022/10/03 14:01:23;;;;;;;10.15;1.65;;;;;;;;;;5042061;28;20543;-84
2022/10/03 14:04:17;;;;;;;7.70;1.42;;;;;;;;;;5010697;28;20037;-83
2022/10/03 14:07:00;;;;;;;9.85;1.38;;;;;;;;;;5028664;28;20493;-84
2022/10/03 14:10:00;;;;;;;10.02;1.73;;;;;;;;;;5043217;28;20056;-84
2022/10/03 14:12:28;;;;;;;4.00;1.17;;;;;;;;;;5010000;28;20167;-84
2022/10/03 14:15:28;;;;;;;5.93;1.23;;;;;;;;;;5022569;28;20112;-84
2022/10/03 14:18:22;;;;;;;8.05;1.40;;;;;;;;;;5042461;28;20087;-84
2022/10/03 14:21:27;;;;;;;7.93;1.60;;;;;;;;;;5042117;28;20068;-83
2022/10/03 14:24:01;;;;;;;4.93;0.85;;;;;;;;;;5027213;28;20033;-83
2022/10/03 14:26:38;;;;;;;5.70;1.20;;;;;;;;;;5022238;28;20055;-83
2022/10/03 14:29:50;;;;;;;7.70;1.45;;;;;;;;;;5026958;28;20040;-83
2022/10/03 14:32:30;;;;;;;8.05;1.30;;;;;;;;;;5009288;28;20049;-84
2022/10/03 14:35:46;;;;;;;8.75;1.77;;;;;;;;;;5014431;28;20048;-83
2022/10/03 14:38:57;;;;;;;7.32;1.27;;;;;;;;;;5047149;28;20045;-83
2022/10/03 14:41:31;;;;;;;7.97;1.40;;;;;;;;;;5043248;28;20373;-83
2022/10/03 14:44:26;;;;;;;8.52;1.55;;;;;;;;;;5043630;28;20562;-83
2022/10/03 14:46:59;;;;;;;11.40;2.17;;;;;;;;;;5042449;28;20065;-83
2022/10/03 14:49:31;;;;;;;8.77;1.52;;;;;;;;;;5044924;28;20498;-83
2022/10/03 14:52:26;;;;;;;14.90;3.05;;;;;;;;;;5045755;28;20110;-83
2022/10/03 14:54:56;;;;;;;5.13;1.08;;;;;;;;;;5029038;28;20036;-83
2022/10/03 14:57:43;;;;;;;11.45;2.25;;;;;;;;;;5047478;28;20041;-83
2022/10/03 15:00:42;;;;;;;8.35;1.88;;;;;;;;;;5027801;28;20052;-83
2022/10/03 15:03:15;;;;;;;10.30;1.58;;;;;;;;;;5028147;28;20036;-83
2022/10/03 15:06:13;;;;;;;9.23;1.45;;;;;;;;;;5032637;28;20045;-83
2022/10/03 15:08:51;;;;;;;5.47;1.40;;;;;;;;;;4969065;28;20057;-82
2022/10/03 15:11:26;;;;;;;7.35;1.50;;;;;;;;;;4972436;28;20085;-81
2022/10/03 15:14:25;;;;;;;11.52;1.55;;;;;;;;;;4976865;28;20039;-81
2022/10/03 15:16:56;;;;;;;11.98;1.85;;;;;;;;;;4976475;28;20209;-81
2022/10/03 15:20:20;;;;;;;6.88;1.55;;;;;;;;;;4973599;28;20081;-81
2022/10/03 15:22:52;;;;;;;8.23;1.67;;;;;;;;;;4979470;28;20046;-81
2022/10/03 15:25:42;;;;;;;9.65;1.92;;;;;;;;;;4976964;28;20059;-81
2022/10/03 15:28:29;;;;;;;11.80;2.10;;;;;;;;;;4968977;28;20046;-81
2022/10/03 15:31:13;;;;;;;10.27;1.60;;;;;;;;;;4965098;28;20039;-81
2022/10/03 15:33:44;;;;;;;5.53;1.50;;;;;;;;;;4980318;28;20046;-82
2022/10/03 15:36:24;;;;;;;11.27;2.60;;;;;;;;;;4962729;28;20046;-81
2022/10/03 15:38:59;;;;;;;6.50;1.45;;;;;;;;;;4984732;28;20099;-81
2022/10/03 15:41:34;;;;;;;11.43;2.03;;;;;;;;;;4966103;28;20074;-82
2022/10/03 15:44:32;;;;;;;;;;;;;;;;;;;;;
2022/10/03 15:47:28;;;;;;;7.20;1.65;;;;;;;;;;5057045;28;20094;-81
2022/10/03 15:50:01;;;;;;;11.25;1.90;;;;;;;;;;5053744;28;20124;-81
2022/10/03 15:52:40;;;;;;;5.47;1.30;;;;;;;;;;5039809;28;20068;-81
2022/10/03 15:55:45;;;;;;;5.40;1.30;;;;;;;;;;5055187;28;20063;-81
2022/10/03 15:58:24;;;;;;;9.90;2.78;;;;;;;;;;5038518;28;20041;-82
2022/10/03 16:01:10;;;;;;;7.38;1.33;;;;;;;;;;5050909;28;20041;-82
2022/10/03 16:03:46;;;;;;;14.57;2.50;;;;;;;;;;5051456;28;20025;-81
2022/10/03 16:06:38;;;;;;;8.80;2.67;;;;;;;;;;5054402;28;20045;-81
2022/10/03 16:09:24;;;;;;;8.25;1.45;;;;;;;;;;5027859;28;20063;-82
2022/10/03 16:12:46;;;;;;;5.03;1.30;;;;;;;;;;5043475;28;20048;-82
2022/10/03 16:15:36;;;;;;;5.78;1.55;;;;;;;;;;5046799;28;20037;-83
2022/10/03 16:18:49;;;;;;;7.15;1.40;;;;;;;;;;5048138;28;20032;-83
2022/10/03 16:21:42;;;;;;;7.03;1.92;;;;;;;;;;5047191;28;20032;-82
2022/10/03 16:24:31;;;;;;;6.63;1.30;;;;;;;;;;5031688;28;20052;-82
2022/10/03 16:27:19;;;;;;;6.07;1.30;;;;;;;;;;5045345;28;20492;-82
2022/10/03 16:30:10;;;;;;;3.45;0.93;;;;;;;;;;5046547;28;20044;-82
2022/10/03 16:33:05;;;;;;;8.65;1.83;;;;;;;;;;5017094;28;20049;-83
2022/10/03 16:36:03;;;;;;;9.63;1.55;;;;;;;;;;5032347;28;20053;-82
2022/10/03 16:38:42;;;;;;;7.70;2.05;;;;;;;;;;5049673;28;20086;-82
2022/10/03 16:41:45;;;;;;;9.38;1.77;;;;;;;;;;5030019;28;20036;-82
2022/10/03 16:44:23;;;;;;;11.63;1.63;;;;;;;;;;5052855;28;20100;-82
2022/10/03 16:47:02;;;;;;;12.18;1.58;;;;;;;;;;5056515;28;20087;-81
2022/10/03 16:52:36;;;;;;;8.68;1.58;;;;;;;;;;5058666;28;20109;-82
2022/10/03 16:55:30;;;;;;;10.90;1.45;;;;;;;;;;5054966;28;20043;-82
2022/10/03 16:58:28;;;;;;;3.72;1.27;;;;;;;;;;5042293;28;20083;-82
2022/10/03 17:01:30;;;;;;;10.55;1.63;;;;;;;;;;5047563;28;20053;-82
2022/10/03 17:04:14;;;;;;;6.97;1.30;;;;;;;;;;5052464;28;20043;-81
2022/10/03 17:06:47;;;;;;;7.60;1.77;;;;;;;;;;5064135;28;20040;-83
2022/10/03 17:09:45;;;;;;;8.85;2.40;;;;;;;;;;5047680;28;20045;-82
2022/10/03 17:12:23;;;;;;;10.63;1.63;;;;;;;;;;5047367;28;20052;-82
2022/10/03 17:14:55;;;;;;;6.32;1.23;;;;;;;;;;5026682;28;20048;-82
2022/10/03 17:17:38;;;;;;;9.00;2.00;;;;;;;;;;5045474;28;20588;-82
2022/10/03 17:20:37;;;;;;;6.07;1.63;;;;;;;;;;5043289;28;20489;-81
2022/10/03 17:23:36;;;;;;;7.35;1.50;;;;;;;;;;5012145;28;20101;-82
2022/10/03 17:26:21;;;;;;;11.93;1.98;;;;;;;;;;5009807;28;20405;-82
2022/10/03 17:28:56;;;;;;;15.73;2.22;;;;;;;;;;5025244;28;20049;-82
2022/10/03 17:31:51;;;;;;;8.73;2.13;;;;;;;;;;5007367;28;20400;-82